Terminal Aerodrome Forecast
Issued by NWS Upton, NY

Current Version | Previous Version | Text Only | Print | Product List | Glossary On
Versions: 1 2 3 4 5 6 7 8 9 10 11 12 13 14 15 16 17 18 19 20 21 22 23 24 25 26 27 28 29 30 31 32 33 34 35 36 37 38
000
FTUS41 KOKX 271735
TAFJFK
TAF
KJFK 271735Z 2718/2824 18009KT P6SM FEW010 BKN025
      TEMPO 2718/2721 SCT025 BKN035
     FM272200 14010KT 6SM BR SCT008 BKN025
     FM280000 14008KT 4SM BR BKN008 OVC015
     FM280200 14008KT 1 1/2SM -DZ BR OVC007
     FM280600 16005KT 1/2SM -DZ FG OVC004
     FM281400 27008KT P6SM FEW008 BKN060
     FM281900 18010KT P6SM SCT060=

USA.gov is the U.S. government's official web portal to all federal, state and local government web resources and services.